Hereford, South Dakota
Current Conditions -  °F | °C
As of 1:58 AM on Wednesday 22 Oct 2014 (Local Time) from KRCA Reporting Station
Scattered Clouds Scattered Clouds  
Wind Chill: 64°   Ceiling: Unl
Heat Index: 64°   Visibility: 10mi
Dew Point: 43°   Wind: 29mph
Humidity: 46%   Direction: 350°N
Pressure: 29.82"   Gusts: 35mph
Location:  44.4145°N, 103.17°W
Report Text: KRCA 220758Z 35025G30KT 10SM FEW110 SCT130 18/06 A2982 RMK AO2A PK WND 35031/52 SLP075 T01760059 $
Loading
Personal Weather Stations






























Interactive Weather Map
Tropical Storm Tracking
New forecast layout! Learn more

10-Day Weather Forecast

Advertisements
Track Severe Weather on mobile